ADDS METAR Data INFO
IDs: Format: Raw Decoded Include TAF

Data at: 0452 UTC 21 Feb 2018

KMTV 201515Z AUTO 00000KT 10SM OVC005 13/12 A3047 RMK AO2 T01310117
KMTV 201455Z AUTO 00000KT 7SM OVC005 12/11 A3047 RMK AO2 T01230112
KMTV 201435Z AUTO 15003KT 5SM BR OVC003 12/11 A3048 RMK AO2 T01200111
KMTV 201415Z AUTO 00000KT 5SM BR OVC003 12/11 A3048 RMK AO2 T01150108
KMTV 201355Z AUTO 00000KT 4SM BR OVC003 11/11 A3048 RMK AO2 T01110107
KMTV 201335Z AUTO 00000KT 3SM BR OVC003 11/10 A3047 RMK AO2 T01070104
KMTV 201310Z AUTO 15003KT 3SM BR OVC003 10/10 A3047 RMK AO2 T01040100
KMTV 201255Z AUTO 00000KT 3SM BR OVC003 10/10 A3047 RMK AO2 T01020099
KMTV 201235Z AUTO 15003KT 2 1/2SM BR OVC005 10/10 A3046 RMK AO2 T01010097
KMTV 201215Z AUTO 00000KT 3SM -RA OVC005 10/10 A3045 RMK AO2 T01000096
KMTV 201155Z AUTO 00000KT 3SM BR OVC007 10/10 A3044 RMK AO2 70001 T01000096 10103 20092
KMTV 201135Z AUTO 00000KT 5SM BR OVC007 10/10 A3044 RMK AO2 T01020098
KMTV 201115Z AUTO 00000KT 5SM BR BKN005 OVC009 10/10 A3044 RMK AO2 T01030098
KMTV 201055Z AUTO 00000KT 5SM -DZ OVC005 10/10 A3043 RMK AO2 T01030098
KMTV 201035Z AUTO 00000KT 5SM -DZ OVC005 10/10 A3043 RMK AO2 T01020097
KMTV 201015Z AUTO 00000KT 5SM BR OVC005 10/10 A3042 RMK AO2 T01010095
KMTV 200955Z AUTO 00000KT 5SM BR OVC005 10/10 A3042 RMK AO2 T01000095
KMTV 200935Z AUTO 00000KT 5SM BR OVC005 10/10 A3042 RMK AO2 T01000095
KMTV 200915Z AUTO 00000KT 5SM BR BKN005 OVC009 10/09 A3042 RMK AO2 T00980093
KMTV 200855Z AUTO 00000KT 5SM BR OVC009 10/09 A3041 RMK AO2 T00970091
KMTV 200835Z AUTO 00000KT 7SM BKN007 OVC010 10/09 A3042 RMK AO2 T00970091
KMTV 200815Z AUTO 00000KT 7SM BKN005 OVC008 10/09 A3042 RMK AO2 T00970091
KMTV 200755Z AUTO 00000KT 7SM OVC008 10/09 A3042 RMK AO2 T00960091
KMTV 200735Z AUTO 00000KT 7SM BKN004 OVC010 09/09 A3042 RMK AO2 T00940089
KMTV 200715Z AUTO 00000KT 7SM OVC004 09/09 A3042 RMK AO2 T00930088
KMTV 200655Z AUTO 00000KT 7SM OVC004 09/09 A3043 RMK AO2 T00930087
KMTV 200635Z AUTO 00000KT 7SM BKN004 OVC009 09/09 A3042 RMK AO2 T00920086
KMTV 200615Z AUTO 16003KT 10SM OVC011 09/09 A3043 RMK AO2 T00920086
KMTV 200555Z AUTO 00000KT 10SM OVC011 09/09 A3042 RMK AO2 T00920088 10095 20080 400980030
KMTV 200535Z AUTO 00000KT 10SM OVC011 09/08 A3043 RMK AO2 T00870083
KMTV 200515Z AUTO 00000KT 7SM OVC013 08/08 A3042 RMK AO2 T00830079
KMTV 200455Z AUTO 00000KT 7SM BKN015 BKN021 08/08 A3043 RMK AO2 T00840080
KMTV 200435Z AUTO 00000KT 5SM BR BKN021 08/08 A3043 RMK AO2 T00840078
KMTV 200415Z AUTO 00000KT 10SM SCT008 BKN021 09/08 A3042 RMK AO2 T00880083
KMTV 200355Z AUTO 00000KT 10SM SCT008 BKN019 09/08 A3043 RMK AO2 T00880081
KMTV 200335Z AUTO 00000KT 10SM BKN010 OVC017 09/09 A3042 RMK AO2 T00910085
KMTV 200315Z AUTO 00000KT 7SM BKN006 OVC010 09/09 A3042 RMK AO2 T00920086
KMTV 200255Z AUTO 00000KT 5SM BR OVC004 09/09 A3043 RMK AO2 T00930087
KMTV 200235Z AUTO 00000KT 5SM BR OVC006 09/09 A3044 RMK AO2 T00930086
KMTV 200215Z AUTO 00000KT 7SM OVC006 09/09 A3044 RMK AO2 T00930085
KMTV 200155Z AUTO 00000KT 7SM OVC006 09/09 A3043 RMK AO2 T00930085
KMTV 200135Z AUTO 00000KT 10SM OVC008 09/09 A3042 RMK AO2 T00930085
KMTV 200115Z AUTO 00000KT 10SM OVC008 09/09 A3042 RMK AO2 T00930085
KMTV 200055Z AUTO 00000KT 10SM OVC012 09/08 A3042 RMK AO2 T00920084
KMTV 200035Z AUTO 00000KT 10SM OVC014 09/08 A3041 RMK AO2 T00930083
KMTV 200015Z AUTO 00000KT 10SM OVC014 09/08 A3040 RMK AO2 T00930083
KMTV 192355Z AUTO 00000KT 10SM SCT008 OVC016 10/08 A3040 RMK AO2 T00950083 10098 20080
KMTV 192335Z AUTO 00000KT 10SM BKN008 BKN016 OVC023 10/08 A3040 RMK AO2 T00950083
KMTV 192315Z AUTO 00000KT 10SM BKN016 OVC025 10/08 A3039 RMK AO2 T00960082
KMTV 192255Z AUTO 00000KT 10SM SCT009 OVC018 10/08 A3039 RMK AO2 T00970083
KMTV 192235Z AUTO 00000KT 10SM OVC009 10/08 A3040 RMK AO2 T00970083
KMTV 192215Z AUTO 00000KT 10SM OVC009 10/08 A3040 RMK AO2 T00980083
KMTV 192155Z AUTO 00000KT 10SM OVC009 10/08 A3040 RMK AO2 T00980083
KMTV 192135Z AUTO 00000KT 10SM OVC009 10/08 A3039 RMK AO2 T00970082
KMTV 192115Z AUTO 00000KT 10SM OVC009 10/08 A3039 RMK AO2 T00970081
KMTV 192055Z AUTO 00000KT 10SM OVC007 10/08 A3039 RMK AO2 T00950080
KMTV 192035Z AUTO 16003KT 10SM OVC007 09/08 A3039 RMK AO2 T00940080
KMTV 192015Z AUTO 14003KT 10SM OVC007 09/08 A3039 RMK AO2 T00930080
KMTV 191955Z AUTO 15003KT 10SM OVC007 09/08 A3040 RMK AO2 T00900076
KMTV 191935Z AUTO 00000KT 10SM OVC007 09/07 A3040 RMK AO2 T00900074
KMTV 191915Z AUTO 00000KT 10SM OVC007 09/07 A3040 RMK AO2 T00900074
KMTV 191855Z AUTO 00000KT 10SM OVC007 09/07 A3040 RMK AO2 T00910073
KMTV 191835Z AUTO 00000KT 10SM OVC007 09/07 A3041 RMK AO2 T00860072
KMTV 191815Z AUTO 00000KT 10SM OVC005 08/07 A3042 RMK AO2 T00820071
KMTV 191755Z AUTO 00000KT 10SM OVC005 08/07 A3042 RMK AO2 60001 T00820070 10083 20051
KMTV 191735Z AUTO 00000KT 10SM OVC003 08/07 A3043 RMK AO2 T00800070
KMTV 191715Z AUTO 00000KT 4SM BR OVC003 07/07 A3045 RMK AO2 T00740067
KMTV 191655Z AUTO 00000KT 3SM BR OVC003 07/06 A3046 RMK AO2 P0001 T00700063